Time;durP1;ratioP1;P1;durP2;ratioP2;P2;SDS_P1;SDS_P2;PMS_P1;PMS_P2;Temp;Humidity;BMP_temperature;BMP_pressure;BME280_temperature;BME280_humidity;BME280_pressure;Samples;Min_cycle;Max_cycle;Signal;HPM_P1;HPM_P2
2022/07/23 00:02:06;;;;;;;10.58;6.92;;;;;;;21.37;70.12;100597.43;3607991;80;98792;-82
2022/07/23 00:07:07;;;;;;;11.28;6.70;;;;;;;21.32;70.70;100603.58;3640411;80;98883;-82
2022/07/23 00:12:08;;;;;;;11.38;6.78;;;;;;;21.28;70.74;100602.89;3609298;80;98912;-83
2022/07/23 00:17:09;;;;;;;9.58;6.58;;;;;;;21.22;70.78;100606.07;3636342;80;99000;-83
2022/07/23 00:22:10;;;;;;;9.60;6.85;;;;;;;21.16;71.08;100606.45;3600160;80;99252;-83
2022/07/23 00:27:11;;;;;;;9.83;7.15;;;;;;;21.12;71.44;100600.16;3597998;80;99175;-83
2022/07/23 00:32:12;;;;;;;10.98;6.75;;;;;;;21.07;71.59;100605.70;3640886;80;99383;-83
2022/07/23 00:37:13;;;;;;;10.75;7.33;;;;;;;21.01;71.34;100599.09;3604536;80;98700;-83
2022/07/23 00:42:15;;;;;;;9.83;7.03;;;;;;;20.93;71.69;100606.73;3601404;80;98821;-83
2022/07/23 00:47:16;;;;;;;11.43;6.65;;;;;;;20.88;72.05;100596.05;3632036;80;98636;-83
2022/07/23 00:52:17;;;;;;;10.40;7.20;;;;;;;20.83;72.04;100595.19;3607086;80;99053;-83
2022/07/23 00:57:18;;;;;;;9.83;6.75;;;;;;;20.77;72.17;100592.13;3634925;80;99200;-82
2022/07/23 01:02:19;;;;;;;10.15;7.08;;;;;;;20.74;72.49;100591.63;3648475;80;98847;-83
2022/07/23 01:07:20;;;;;;;10.43;7.35;;;;;;;20.71;72.76;100581.31;3612914;80;99142;-84
2022/07/23 01:12:21;;;;;;;9.45;6.40;;;;;;;20.67;72.83;100576.45;3638080;80;98883;-83
2022/07/23 01:17:22;;;;;;;11.60;7.62;;;;;;;20.61;73.02;100577.42;3566450;80;98839;-83
2022/07/23 01:22:28;;;;;;;9.33;6.80;;;;;;;20.59;73.38;100573.66;3601431;80;99262;-83
2022/07/23 01:27:30;;;;;;;;;;;;;;;20.58;73.51;100576.89;3636581;80;98901;-83
2022/07/23 01:32:31;;;;;;;12.20;7.15;;;;;;;20.55;74.15;100581.98;3627266;80;84385;-83
2022/07/23 01:37:32;;;;;;;11.75;8.00;;;;;;;20.51;73.33;100575.09;3618675;80;98679;-83
2022/07/23 01:42:33;;;;;;;11.80;7.62;;;;;;;20.46;73.70;100579.02;3631404;80;98786;-83
2022/07/23 01:47:34;;;;;;;10.20;7.28;;;;;;;20.42;73.87;100560.95;3607267;80;99046;-83
2022/07/23 01:52:35;;;;;;;11.28;7.55;;;;;;;20.37;74.00;100555.89;3606546;80;99045;-83
2022/07/23 01:57:36;;;;;;;10.40;6.95;;;;;;;20.36;74.33;100557.12;3609622;80;99205;-83
2022/07/23 02:02:37;;;;;;;10.10;7.53;;;;;;;20.32;74.02;100547.27;3621899;80;98919;-83
2022/07/23 02:07:38;;;;;;;10.55;7.30;;;;;;;20.27;74.56;100549.20;3607363;80;99131;-83
2022/07/23 02:12:39;;;;;;;9.93;7.60;;;;;;;20.24;74.48;100550.86;3625116;80;98588;-83
2022/07/23 02:17:40;;;;;;;9.53;6.90;;;;;;;20.21;74.76;100548.93;3612538;80;98660;-83
2022/07/23 02:22:41;;;;;;;10.28;7.22;;;;;;;20.20;74.86;100567.53;3592411;80;98856;-83
2022/07/23 02:27:42;;;;;;;9.25;6.58;;;;;;;20.22;74.95;100565.10;3587268;80;98940;-83
2022/07/23 02:32:43;;;;;;;11.48;7.70;;;;;;;20.20;75.11;100571.72;3649363;80;98861;-83
2022/07/23 02:37:44;;;;;;;11.85;7.37;;;;;;;20.19;75.33;100554.19;3604310;80;99145;-82
2022/07/23 02:42:46;;;;;;;11.57;7.58;;;;;;;20.20;75.40;100557.15;3619838;80;32364;-82
2022/07/23 02:47:47;;;;;;;10.70;7.80;;;;;;;20.19;75.47;100547.80;3615319;80;98817;-82
2022/07/23 02:52:47;;;;;;;10.23;7.55;;;;;;;20.18;75.68;100528.06;3642853;80;99081;-82
2022/07/23 02:57:48;;;;;;;10.53;7.65;;;;;;;20.19;75.60;100531.03;3595776;80;99412;-82
2022/07/23 03:02:49;;;;;;;11.28;8.10;;;;;;;20.18;75.80;100537.84;3608726;80;98996;-82
2022/07/23 03:07:51;;;;;;;11.57;7.67;;;;;;;20.17;75.93;100546.84;3662337;80;98959;-83
2022/07/23 03:12:51;;;;;;;10.53;7.65;;;;;;;20.16;75.86;100539.68;3653191;80;32145;-83
2022/07/23 03:17:52;;;;;;;11.97;8.38;;;;;;;20.14;76.04;100543.53;3591296;80;98809;-84
2022/07/23 03:22:53;;;;;;;11.73;7.92;;;;;;;20.15;76.23;100550.69;3628677;80;99035;-83
2022/07/23 03:27:54;;;;;;;12.73;8.50;;;;;;;20.15;76.22;100552.69;3620817;80;99029;-83
2022/07/23 03:32:55;;;;;;;11.67;8.97;;;;;;;20.13;76.37;100541.97;3659921;80;98935;-83
2022/07/23 03:37:56;;;;;;;12.73;8.67;;;;;;;20.12;76.24;100541.00;3629807;80;98945;-83
2022/07/23 03:42:57;;;;;;;12.77;8.50;;;;;;;20.11;76.67;100543.63;3625911;80;33815;-84
2022/07/23 03:47:59;;;;;;;15.07;9.83;;;;;;;20.12;76.73;100530.59;3639741;80;98783;-83
2022/07/23 03:53:00;;;;;;;15.90;10.10;;;;;;;20.09;76.81;100531.49;3647994;80;99330;-83
2022/07/23 03:58:01;;;;;;;15.70;9.87;;;;;;;20.12;76.89;100546.59;3655128;80;99126;-83
2022/07/23 04:03:02;;;;;;;14.27;10.73;;;;;;;20.12;76.96;100548.76;3598500;80;99293;-83
2022/07/23 04:08:04;;;;;;;13.63;11.00;;;;;;;20.13;77.19;100546.16;3636549;80;99213;-83
2022/07/23 04:13:05;;;;;;;13.77;10.70;;;;;;;20.16;77.17;100553.66;3637271;80;25909;-83
2022/07/23 04:18:06;;;;;;;15.10;11.20;;;;;;;20.16;77.36;100545.90;3584908;80;99152;-83
2022/07/23 04:23:07;;;;;;;15.17;10.93;;;;;;;20.19;77.47;100544.41;3632019;80;99198;-83
2022/07/23 04:28:08;;;;;;;13.33;10.17;;;;;;;20.24;77.52;100543.08;3626989;80;99171;-83
2022/07/23 04:33:09;;;;;;;14.20;10.57;;;;;;;20.27;77.47;100542.21;3670360;80;99070;-83
2022/07/23 04:38:10;;;;;;;16.53;11.73;;;;;;;20.30;77.51;100545.51;3583628;80;99078;-84
2022/07/23 04:43:11;;;;;;;17.05;11.30;;;;;;;20.33;77.39;100537.02;3622447;80;33199;-83
2022/07/23 04:48:12;;;;;;;16.50;12.30;;;;;;;20.36;77.79;100537.55;3610957;80;99273;-83
2022/07/23 04:53:13;;;;;;;16.00;11.17;;;;;;;20.39;77.88;100526.11;3627844;80;99410;-83
2022/07/23 04:58:14;;;;;;;14.73;10.17;;;;;;;20.40;78.03;100506.70;3612771;80;99230;-83
2022/07/23 05:03:16;;;;;;;15.13;10.70;;;;;;;20.47;77.56;100500.91;3635722;80;99293;-83
2022/07/23 05:08:17;;;;;;;14.55;11.08;;;;;;;20.54;77.62;100493.73;3605355;80;99148;-83
2022/07/23 05:13:19;;;;;;;16.93;10.47;;;;;;;20.60;77.77;100487.77;3622529;80;30425;-83
2022/07/23 05:18:20;;;;;;;15.25;10.70;;;;;;;20.69;77.93;100490.68;3607407;80;99195;-83
2022/07/23 05:23:21;;;;;;;18.13;12.43;;;;;;;20.78;78.35;100483.23;3561182;82;99059;-83
2022/07/23 05:28:21;;;;;;;17.03;13.20;;;;;;;20.90;78.73;100467.70;3550023;82;99257;-83
2022/07/23 05:33:23;;;;;;;16.80;12.53;;;;;;;21.07;79.31;100466.38;3562062;82;99149;-82
2022/07/23 05:38:23;;;;;;;16.17;11.68;;;;;;;21.38;79.62;100457.59;3566654;82;99191;-83
2022/07/23 05:43:25;;;;;;;15.20;12.13;;;;;;;21.82;79.84;100459.34;3571961;81;27482;-83
2022/07/23 05:48:26;;;;;;;15.40;12.07;;;;;;;22.38;79.23;100441.89;3555372;82;99432;-84
2022/07/23 05:53:27;;;;;;;14.70;10.30;;;;;;;22.98;77.94;100444.02;3562826;82;99313;-83
2022/07/23 05:58:28;;;;;;;12.85;10.18;;;;;;;23.71;77.27;100446.48;3567784;81;99495;-83
2022/07/23 06:03:29;;;;;;;12.68;9.93;;;;;;;24.42;75.58;100456.23;3549390;82;99124;-83
2022/07/23 06:08:30;;;;;;;14.83;10.28;;;;;;;24.95;72.93;100441.27;3553638;82;99077;-83
2022/07/23 06:13:31;;;;;;;13.98;8.88;;;;;;;25.57;72.34;100431.62;3579907;82;25869;-83
2022/07/23 06:18:32;;;;;;;12.73;9.65;;;;;;;26.19;71.14;100426.18;3556862;81;98954;-85
2022/07/23 06:23:33;;;;;;;12.60;9.18;;;;;;;26.79;68.39;100428.58;3599515;80;98838;-83
2022/07/23 06:28:34;;;;;;;11.28;8.60;;;;;;;27.30;66.37;100421.88;3601268;80;99049;-84
2022/07/23 06:33:35;;;;;;;12.35;8.38;;;;;;;27.74;65.46;100429.56;3662775;80;99126;-84
2022/07/23 06:38:36;;;;;;;13.98;8.25;;;;;;;28.24;64.46;100420.45;3621220;80;99066;-84
2022/07/23 06:43:37;;;;;;;12.50;8.05;;;;;;;28.73;62.67;100423.66;3621418;80;32171;-84
2022/07/23 06:48:38;;;;;;;11.20;7.65;;;;;;;29.13;61.68;100427.75;3619470;80;99000;-85
2022/07/23 06:53:40;;;;;;;10.40;7.45;;;;;;;29.51;59.13;100427.23;3612985;80;98762;-84
2022/07/23 06:58:42;;;;;;;9.05;6.30;;;;;;;29.58;57.97;100420.48;3609528;80;99080;-84
2022/07/23 07:03:43;;;;;;;8.90;6.42;;;;;;;29.92;57.22;100425.69;3604765;80;98797;-83
2022/07/23 07:08:44;;;;;;;9.68;6.10;;;;;;;30.19;54.46;100419.36;3638591;80;98765;-82
2022/07/23 07:13:45;;;;;;;9.33;6.85;;;;;;;30.31;54.80;100433.72;3626911;80;99150;-82
2022/07/23 07:18:46;;;;;;;9.55;6.55;;;;;;;30.56;54.44;100426.41;3652574;80;98555;-83
2022/07/23 07:23:47;;;;;;;11.03;6.25;;;;;;;30.98;53.35;100414.05;3630017;80;98624;-83
2022/07/23 07:28:48;;;;;;;8.30;5.97;;;;;;;31.30;52.34;100419.61;3624950;80;98935;-83
2022/07/23 07:33:49;;;;;;;10.25;6.85;;;;;;;31.32;51.37;100431.27;3648845;80;98770;-83
2022/07/23 07:38:51;;;;;;;9.08;6.28;;;;;;;31.41;50.43;100438.88;3600192;80;98875;-83
2022/07/23 07:43:52;;;;;;;7.85;5.62;;;;;;;31.15;50.85;100438.35;3616707;80;98693;-83
2022/07/23 07:48:53;;;;;;;11.60;6.70;;;;;;;31.33;50.26;100449.88;3628305;80;98424;-84
2022/07/23 07:53:54;;;;;;;11.20;7.20;;;;;;;31.27;49.43;100447.02;3622881;80;98906;-83
2022/07/23 07:58:55;;;;;;;8.70;6.37;;;;;;;30.99;48.96;100456.19;3595155;80;99035;-83
2022/07/23 08:03:56;;;;;;;7.60;5.05;;;;;;;30.65;48.73;100443.25;3644178;80;98704;-83
2022/07/23 08:08:57;;;;;;;11.00;6.40;;;;;;;30.41;49.61;100450.00;3650499;80;98835;-83
2022/07/23 08:13:58;;;;;;;11.93;6.80;;;;;;;30.17;49.61;100479.48;3637366;80;99050;-83
2022/07/23 08:18:59;;;;;;;10.63;6.58;;;;;;;29.81;49.60;100537.72;3628032;80;98929;-83
2022/07/23 08:24:00;;;;;;;8.68;5.78;;;;;;;29.24;50.06;100564.70;3640062;80;98839;-85
2022/07/23 08:29:01;;;;;;;10.70;7.15;;;;;;;28.67;51.50;100534.06;3642747;80;98941;-87
2022/07/23 08:34:02;;;;;;;10.23;7.03;;;;;;;28.36;52.80;100513.34;3637109;80;98986;-86
2022/07/23 08:39:03;;;;;;;11.65;7.60;;;;;;;27.99;53.61;100515.96;3595326;80;99055;-86
2022/07/23 08:44:08;;;;;;;10.53;7.28;;;;;;;27.69;55.25;100529.25;3633835;80;98913;-86
2022/07/23 08:49:09;;;;;;;12.35;7.62;;;;;;;27.37;56.13;100536.73;3626225;80;99238;-83
2022/07/23 08:54:11;;;;;;;10.93;6.37;;;;;;;27.02;57.75;100540.06;3628806;80;98899;-85
2022/07/23 08:59:13;;;;;;;11.88;6.75;;;;;;;26.63;57.93;100530.09;3593903;80;98975;-84
2022/07/23 09:04:14;;;;;;;8.75;5.97;;;;;;;26.33;58.73;100480.44;3627500;80;99187;-84
2022/07/23 09:09:20;;;;;;;9.75;6.60;;;;;;;26.12;58.44;100547.08;3589222;80;99235;-85
2022/07/23 09:14:41;;;;;;;13.60;7.60;;;;;;;25.84;59.80;100532.96;3631423;80;99330;-86
2022/07/23 09:19:44;;;;;;;12.37;8.08;;;;;;;25.57;61.11;100482.36;3609240;80;99058;-85
2022/07/23 09:25:17;;;;;;;11.93;7.22;;;;;;;25.40;61.51;100524.87;3657573;80;25828;-85
2022/07/23 09:30:18;;;;;;;10.43;7.20;;;;;;;25.21;62.17;100542.44;3627436;80;98941;-87
2022/07/23 09:35:19;;;;;;;11.75;8.00;;;;;;;25.08;63.21;100563.59;3652425;80;98888;-87
2022/07/23 09:40:20;;;;;;;11.00;8.00;;;;;;;25.00;63.61;100565.16;3626225;80;99355;-88
2022/07/23 09:45:22;;;;;;;14.40;9.15;;;;;;;24.91;64.53;100550.47;3591161;80;98971;-89
2022/07/23 09:50:23;;;;;;;11.33;7.92;;;;;;;24.83;64.96;100547.04;3621723;80;99017;-89
2022/07/23 09:55:29;;;;;;;11.18;7.70;;;;;;;24.72;65.46;100543.31;3598545;80;35828;-86
2022/07/23 10:00:32;;;;;;;10.63;7.45;;;;;;;24.66;66.10;100545.80;3598019;80;99172;-89
2022/07/23 10:05:35;;;;;;;11.03;7.72;;;;;;;24.65;66.55;100537.22;3636397;80;99127;-88
2022/07/23 10:10:39;;;;;;;9.45;7.10;;;;;;;24.64;66.78;100532.84;3615270;80;99361;-88
2022/07/23 10:15:42;;;;;;;12.93;8.75;;;;;;;24.56;66.64;100533.75;3607244;80;98762;-88
2022/07/23 10:20:43;;;;;;;9.30;6.78;;;;;;;24.45;66.87;100541.87;3582931;80;99007;-86
2022/07/23 10:26:16;;;;;;;10.68;7.05;;;;;;;24.45;66.87;100541.87;3574041;80;25921;-86
2022/07/23 10:31:41;;;;;;;11.20;6.92;;;;;;;24.36;67.00;100533.42;3631305;80;98537;-84
2022/07/23 10:36:54;;;;;;;12.13;8.67;;;;;;;24.32;67.50;100525.78;3632441;80;98774;-84
2022/07/23 10:42:14;;;;;;;10.35;6.83;;;;;;;24.31;67.96;100509.38;3611342;80;99062;-84
2022/07/23 10:47:40;;;;;;;8.73;6.60;;;;;;;24.30;68.27;100498.73;3562257;80;99259;-85
2022/07/23 10:52:42;;;;;;;11.05;8.58;;;;;;;24.24;68.31;100493.58;3617437;80;98920;-86
2022/07/23 10:57:50;;;;;;;11.33;7.65;;;;;;;24.20;69.13;100490.12;3568666;80;99119;-86
2022/07/23 11:02:55;;;;;;;11.35;8.65;;;;;;;24.18;69.82;100486.22;3582692;80;99419;-88
2022/07/23 11:08:11;;;;;;;9.25;6.97;;;;;;;24.14;70.28;100487.02;3597060;80;99260;-87
2022/07/23 11:13:27;;;;;;;11.15;8.18;;;;;;;24.11;70.40;100477.48;3647427;80;25819;-89
2022/07/23 11:18:46;;;;;;;11.03;8.03;;;;;;;24.10;70.69;100484.36;3620012;80;99042;-89
2022/07/23 11:24:13;;;;;;;11.18;8.03;;;;;;;24.13;71.01;100490.44;3597794;80;98844;-89
2022/07/23 11:29:32;;;;;;;13.30;9.83;;;;;;;24.17;71.88;100499.52;3638273;80;98950;-88
2022/07/23 11:34:41;;;;;;;12.95;9.45;;;;;;;24.21;72.46;100514.22;3639275;80;99208;-88
2022/07/23 11:39:43;;;;;;;10.85;7.97;;;;;;;24.31;72.15;100517.81;3609540;80;99226;-89
2022/07/23 11:44:46;;;;;;;11.73;9.03;;;;;;;24.43;72.15;100507.81;3615708;80;99049;-86
2022/07/23 11:49:57;;;;;;;11.83;8.20;;;;;;;24.60;72.43;100520.34;3625572;80;99244;-87
2022/07/23 11:55:02;;;;;;;11.18;7.75;;;;;;;24.84;72.93;100507.16;3639515;80;25814;-86
2022/07/23 12:00:21;;;;;;;12.93;8.43;;;;;;;25.03;72.43;100503.68;3632868;80;98775;-86
2022/07/23 12:05:26;;;;;;;10.00;6.72;;;;;;;25.21;72.60;100509.25;3612194;80;98857;-86
2022/07/23 12:10:41;;;;;;;10.53;7.33;;;;;;;25.33;72.04;100501.27;3616311;80;99041;-86
2022/07/23 12:15:47;;;;;;;9.60;5.97;;;;;;;25.46;71.32;100508.88;3628361;80;99100;-86
2022/07/23 12:20:56;;;;;;;9.00;5.78;;;;;;;25.38;70.76;100509.05;3610674;80;98837;-86
2022/07/23 12:26:01;;;;;;;9.25;6.53;;;;;;;25.37;70.43;100506.09;3634318;80;99326;-86
2022/07/23 12:31:02;;;;;;;7.30;5.20;;;;;;;25.38;70.39;100503.42;3606007;80;98364;-85
2022/07/23 12:36:08;;;;;;;11.15;6.03;;;;;;;25.33;69.50;100489.36;3596614;80;98662;-86
2022/07/23 12:41:09;;;;;;;9.28;5.83;;;;;;;25.27;69.47;100467.93;3614873;80;98819;-85
2022/07/23 12:46:20;;;;;;;8.43;6.33;;;;;;;25.34;69.92;100485.28;3639284;80;98821;-85
2022/07/23 12:51:31;;;;;;;9.58;6.72;;;;;;;25.67;72.17;100481.06;3627796;80;98738;-86
2022/07/23 12:56:40;;;;;;;8.85;6.12;;;;;;;26.00;71.87;100477.59;3615473;80;98900;-87
2022/07/23 13:01:48;;;;;;;8.70;6.10;;;;;;;26.20;71.50;100486.98;3609928;80;25950;-88
2022/07/23 13:06:50;;;;;;;8.40;5.47;;;;;;;26.46;71.65;100489.44;3608023;80;98905;-88
2022/07/23 13:11:54;;;;;;;8.48;5.85;;;;;;;26.80;70.72;100488.05;3652251;80;99043;-87
2022/07/23 13:16:56;;;;;;;9.03;6.12;;;;;;;27.10;69.77;100491.80;3559104;80;98696;-86
2022/07/23 13:21:57;;;;;;;10.03;6.35;;;;;;;27.22;68.18;100504.08;3598653;80;99014;-86
2022/07/23 13:27:00;;;;;;;9.08;6.30;;;;;;;27.38;67.34;100496.50;3619083;80;99011;-86
2022/07/23 13:32:00;;;;;;;7.53;5.58;;;;;;;27.39;66.30;100495.23;3580300;80;98845;-85
2022/07/23 13:37:02;;;;;;;8.10;5.40;;;;;;;27.43;65.71;100506.50;3645069;80;98513;-85
2022/07/23 13:42:03;;;;;;;11.50;7.72;;;;;;;27.35;65.13;100507.39;3615560;80;98617;-86
2022/07/23 13:47:04;;;;;;;11.18;6.72;;;;;;;27.32;64.92;100510.56;3637075;80;99140;-85
2022/07/23 13:52:06;;;;;;;10.82;6.72;;;;;;;27.30;64.61;100506.67;3620143;80;98929;-85
2022/07/23 13:57:08;;;;;;;8.85;6.12;;;;;;;27.23;64.11;100507.84;3609502;80;98918;-84
2022/07/23 14:02:10;;;;;;;13.22;10.78;;;;;;;27.25;63.53;100514.42;3658119;80;98850;-85
2022/07/23 14:07:11;;;;;;;12.50;9.15;;;;;;;27.22;63.60;100531.72;3602794;80;98959;-85
2022/07/23 14:12:12;;;;;;;13.20;10.38;;;;;;;27.13;63.32;100523.30;3632348;80;98851;-84
2022/07/23 14:17:13;;;;;;;12.45;8.73;;;;;;;27.14;63.59;100513.55;3613124;80;99104;-84
2022/07/23 14:22:15;;;;;;;12.70;9.65;;;;;;;27.08;63.15;100518.33;3629820;80;98963;-84
2022/07/23 14:27:16;;;;;;;14.90;10.70;;;;;;;27.07;63.04;100518.81;3632824;80;98593;-84
2022/07/23 14:32:17;;;;;;;11.88;8.98;;;;;;;27.06;63.04;100511.61;3631377;80;99572;-85
2022/07/23 14:37:19;;;;;;;9.80;6.92;;;;;;;27.01;62.92;100518.73;3623031;80;98635;-84
2022/07/23 14:42:20;;;;;;;10.63;7.55;;;;;;;26.92;62.72;100526.53;3601209;80;98615;-84
2022/07/23 14:47:21;;;;;;;9.50;6.40;;;;;;;26.87;62.64;100527.97;3624825;80;98958;-85
2022/07/23 14:52:22;;;;;;;9.85;6.10;;;;;;;26.80;62.65;100504.35;3641254;80;98727;-85
2022/07/23 14:57:23;;;;;;;8.78;5.45;;;;;;;26.86;62.74;100499.58;3631809;80;99090;-86
2022/07/23 15:02:24;;;;;;;8.48;6.03;;;;;;;26.84;62.40;100502.74;3660489;80;99046;-86
2022/07/23 15:07:25;;;;;;;9.55;6.03;;;;;;;26.76;61.90;100495.94;3631585;80;98472;-86
2022/07/23 15:12:27;;;;;;;8.83;5.72;;;;;;;26.82;61.87;100498.22;3613285;80;98825;-85
2022/07/23 15:17:28;;;;;;;9.18;6.53;;;;;;;26.83;61.86;100499.16;3635698;80;98550;-85
2022/07/23 15:22:29;;;;;;;11.97;8.18;;;;;;;26.91;62.08;100502.38;3640866;80;97872;-85
2022/07/23 15:27:30;;;;;;;9.68;6.92;;;;;;;26.92;61.98;100508.92;3555178;82;99107;-86
2022/07/23 15:32:31;;;;;;;9.40;6.83;;;;;;;26.98;61.75;100515.45;3567831;82;98731;-86
2022/07/23 15:37:32;;;;;;;9.80;6.92;;;;;;;26.98;61.86;100510.45;3553388;82;98538;-86
2022/07/23 15:42:33;;;;;;;8.80;6.25;;;;;;;26.92;61.73;100502.52;3566611;82;98641;-86
2022/07/23 15:47:34;;;;;;;9.45;6.03;;;;;;;26.82;61.85;100503.22;3557668;82;98799;-86
2022/07/23 15:52:36;;;;;;;8.50;5.47;;;;;;;26.79;62.12;100516.13;3555002;82;97917;-86
2022/07/23 15:57:37;;;;;;;8.40;5.80;;;;;;;26.71;62.31;100512.14;3564667;81;99060;-86
2022/07/23 16:02:38;;;;;;;8.65;6.40;;;;;;;26.59;62.17;100521.02;3575365;82;99025;-86
2022/07/23 16:07:39;;;;;;;8.68;5.90;;;;;;;26.50;61.95;100528.77;3546295;82;99140;-86
2022/07/23 16:12:40;;;;;;;8.40;5.78;;;;;;;26.28;61.95;100530.52;3563163;82;98467;-86
2022/07/23 16:17:41;;;;;;;8.43;5.65;;;;;;;26.07;62.24;100531.60;3559039;82;99075;-85
2022/07/23 16:22:42;;;;;;;9.20;6.00;;;;;;;25.88;62.40;100524.47;3537149;80;98870;-84
2022/07/23 16:27:43;;;;;;;7.90;5.20;;;;;;;25.71;62.70;100529.60;3656649;80;99114;-86
2022/07/23 16:32:44;;;;;;;9.98;5.85;;;;;;;25.55;62.71;100517.30;3605101;80;98762;-85
2022/07/23 16:37:45;;;;;;;9.08;6.30;;;;;;;25.48;62.94;100509.97;3619379;80;99104;-85
2022/07/23 16:42:46;;;;;;;10.15;5.78;;;;;;;25.40;63.11;100513.60;3575319;80;33108;-86
2022/07/23 16:47:49;;;;;;;9.08;5.87;;;;;;;25.32;63.26;100510.95;3598607;80;99134;-85
2022/07/23 16:52:50;;;;;;;8.10;5.40;;;;;;;25.24;63.37;100510.48;3639629;80;98774;-84
2022/07/23 16:57:52;;;;;;;10.82;7.15;;;;;;;25.14;63.67;100514.61;3616491;80;98888;-84
2022/07/23 17:02:56;;;;;;;9.45;6.08;;;;;;;24.97;63.81;100514.02;3631511;80;99054;-85
2022/07/23 17:07:57;;;;;;;10.58;6.83;;;;;;;24.77;64.23;100522.98;3614706;80;98752;-86
2022/07/23 17:12:58;;;;;;;9.15;5.60;;;;;;;24.71;64.58;100522.05;3647148;80;33012;-85
2022/07/23 17:17:59;;;;;;;10.58;7.08;;;;;;;24.52;64.78;100522.50;3634667;80;98815;-85
2022/07/23 17:23:00;;;;;;;9.55;6.90;;;;;;;24.32;65.47;100524.38;3584604;80;99338;-85
2022/07/23 17:28:02;;;;;;;10.08;6.83;;;;;;;24.24;66.04;100523.11;3624677;80;98973;-84
2022/07/23 17:33:03;;;;;;;11.10;7.67;;;;;;;24.14;66.63;100522.17;3659112;80;99042;-85
2022/07/23 17:38:04;;;;;;;9.10;6.28;;;;;;;24.06;66.87;100518.87;3608789;80;98987;-84
2022/07/23 17:43:05;;;;;;;10.03;5.90;;;;;;;24.04;67.11;100525.58;3587642;80;32522;-85
2022/07/23 17:48:06;;;;;;;9.53;6.55;;;;;;;24.01;67.00;100525.73;3629257;80;99003;-85
2022/07/23 17:53:08;;;;;;;8.75;5.50;;;;;;;23.97;67.19;100526.52;3638837;80;97880;-86
2022/07/23 17:58:09;;;;;;;10.28;5.80;;;;;;;23.94;66.80;100528.23;3592886;80;98833;-85
2022/07/23 18:03:10;;;;;;;7.70;5.28;;;;;;;23.89;66.39;100532.27;3630762;80;99016;-85
2022/07/23 18:08:11;;;;;;;10.18;5.12;;;;;;;23.82;65.87;100533.95;3636865;80;98931;-85
2022/07/23 18:13:12;;;;;;;8.03;5.20;;;;;;;23.69;65.52;100541.70;3620529;80;33735;-85
2022/07/23 18:18:13;;;;;;;7.72;4.53;;;;;;;23.59;65.59;100539.48;3598045;80;98672;-85
2022/07/23 18:23:15;;;;;;;9.73;4.80;;;;;;;23.48;65.98;100546.79;3666154;80;98875;-85
2022/07/23 18:28:16;;;;;;;8.98;5.10;;;;;;;23.36;66.24;100555.46;3616295;80;98784;-85
2022/07/23 18:33:17;;;;;;;10.60;5.37;;;;;;;23.23;66.45;100563.20;3592331;80;98761;-85
2022/07/23 18:38:18;;;;;;;7.33;4.70;;;;;;;23.12;66.73;100567.62;3633005;80;99100;-85
2022/07/23 18:43:19;;;;;;;9.38;4.53;;;;;;;23.00;67.24;100581.88;3576989;80;32485;-85
2022/07/23 18:48:21;;;;;;;8.28;4.65;;;;;;;22.88;67.65;100581.97;3642589;80;98582;-85
2022/07/23 18:53:22;;;;;;;9.30;5.08;;;;;;;22.73;68.22;100583.72;3628417;80;98775;-85
2022/07/23 18:58:23;;;;;;;9.80;5.80;;;;;;;22.60;68.64;100591.39;3601534;80;98832;-85
2022/07/23 19:03:24;;;;;;;9.05;5.60;;;;;;;22.44;69.04;100592.34;3635387;80;98753;-85
2022/07/23 19:08:25;;;;;;;7.77;5.43;;;;;;;22.33;69.50;100596.72;3620432;80;98887;-85
2022/07/23 19:13:26;;;;;;;9.33;5.92;;;;;;;22.19;70.01;100605.63;3620953;80;26425;-84
2022/07/23 19:18:27;;;;;;;12.60;6.10;;;;;;;22.06;70.59;100605.64;3609846;80;98832;-85
2022/07/23 19:23:28;;;;;;;10.17;6.07;;;;;;;21.94;71.05;100613.45;3653228;80;98347;-85
2022/07/23 19:28:30;;;;;;;10.58;6.17;;;;;;;21.78;71.56;100609.36;3628179;80;99232;-85
2022/07/23 19:33:31;;;;;;;11.17;5.60;;;;;;;21.67;71.89;100611.68;3626037;80;98954;-86
2022/07/23 19:38:32;;;;;;;8.87;5.63;;;;;;;21.57;72.44;100619.02;3646837;80;98995;-86
2022/07/23 19:43:33;;;;;;;11.27;5.87;;;;;;;21.48;72.78;100623.09;3650726;80;26480;-86
2022/07/23 19:48:34;;;;;;;11.87;6.17;;;;;;;21.36;73.17;100623.86;3607310;80;99098;-85
2022/07/23 19:53:35;;;;;;;9.77;6.00;;;;;;;21.27;73.52;100633.52;3634902;80;98770;-86
2022/07/23 19:58:36;;;;;;;11.70;6.10;;;;;;;21.15;73.76;100637.08;3630644;80;98844;-85
2022/07/23 20:03:37;;;;;;;10.40;6.43;;;;;;;21.03;74.07;100635.80;3573750;80;98934;-85
2022/07/23 20:08:38;;;;;;;9.83;6.42;;;;;;;20.94;74.38;100641.27;3606372;80;99265;-85
2022/07/23 20:13:40;;;;;;;11.83;7.13;;;;;;;20.85;74.79;100635.48;3664318;80;32440;-85
2022/07/23 20:18:42;;;;;;;11.80;6.45;;;;;;;20.78;75.01;100644.68;3628438;80;99159;-85
2022/07/23 20:23:43;;;;;;;9.60;6.17;;;;;;;20.69;75.29;100642.52;3631103;80;99101;-85
2022/07/23 20:28:44;;;;;;;9.23;5.90;;;;;;;20.61;75.49;100648.11;3654267;80;99158;-85
2022/07/23 20:34:09;;;;;;;;;;;;;;;;;;;;;
2022/07/23 20:38:59;;;;;;;9.73;5.83;;;;;;;20.46;76.04;100658.71;3605585;80;98990;-85
2022/07/23 20:44:01;;;;;;;10.80;6.40;;;;;;;20.37;76.17;100664.13;3630289;80;98740;-85
2022/07/23 20:49:02;;;;;;;10.65;7.22;;;;;;;20.27;76.26;100663.80;3625030;80;98738;-85
2022/07/23 20:54:03;;;;;;;10.97;6.97;;;;;;;20.17;76.55;100662.81;3592738;80;98820;-85
2022/07/23 20:59:06;;;;;;;12.87;7.33;;;;;;;20.09;76.81;100666.22;3602539;80;99169;-85
2022/07/23 21:04:07;;;;;;;11.08;7.10;;;;;;;20.00;76.85;100665.39;3599722;80;99157;-85
2022/07/23 21:09:08;;;;;;;9.57;6.20;;;;;;;19.93;77.13;100674.55;3607024;80;98919;-85
2022/07/23 21:14:11;;;;;;;11.77;6.90;;;;;;;19.85;77.56;100678.73;3600567;80;98695;-85
2022/07/23 21:19:12;;;;;;;10.08;6.30;;;;;;;19.83;77.87;100689.56;3602027;80;98967;-85
2022/07/23 21:24:13;;;;;;;10.17;6.30;;;;;;;19.82;78.03;100700.53;3613535;80;98750;-85
2022/07/23 21:29:14;;;;;;;11.67;7.40;;;;;;;19.77;78.27;100703.84;3628556;80;98771;-85
2022/07/23 21:34:15;;;;;;;10.63;7.07;;;;;;;19.72;78.07;100710.73;3641068;80;98918;-85
2022/07/23 21:39:16;;;;;;;12.93;7.47;;;;;;;19.63;78.14;100718.89;3622473;80;99019;-84
2022/07/23 21:44:17;;;;;;;10.63;6.93;;;;;;;19.55;78.41;100720.27;3625961;80;99012;-84
2022/07/23 21:49:18;;;;;;;15.07;7.50;;;;;;;19.43;78.78;100725.12;3629317;80;99032;-84
2022/07/23 21:54:19;;;;;;;10.83;7.40;;;;;;;19.41;79.11;100728.92;3647952;80;98833;-85
2022/07/23 21:59:20;;;;;;;12.43;6.87;;;;;;;19.40;79.31;100733.56;3587050;80;99016;-84
2022/07/23 22:04:21;;;;;;;11.20;6.12;;;;;;;19.38;79.35;100741.56;3631575;80;98921;-85
2022/07/23 22:09:22;;;;;;;13.10;6.93;;;;;;;19.28;79.24;100741.16;3629737;80;98976;-85
2022/07/23 22:14:24;;;;;;;11.93;6.63;;;;;;;19.23;79.53;100748.66;3645491;80;99017;-85
2022/07/23 22:19:26;;;;;;;9.43;5.57;;;;;;;19.14;78.88;100745.60;3644835;80;98884;-84
2022/07/23 22:24:27;;;;;;;10.77;5.73;;;;;;;18.99;79.03;100740.89;3629150;80;99141;-84
2022/07/23 22:29:28;;;;;;;8.60;5.27;;;;;;;18.91;79.03;100741.45;3579605;80;98978;-84
2022/07/23 22:34:30;;;;;;;9.93;5.10;;;;;;;18.81;78.71;100743.81;3647115;80;99122;-84
2022/07/23 22:39:31;;;;;;;8.23;5.03;;;;;;;18.75;78.92;100746.28;3607528;80;99278;-84
2022/07/23 22:44:32;;;;;;;8.80;4.63;;;;;;;18.64;78.80;100742.89;3603578;80;98759;-85
2022/07/23 22:49:33;;;;;;;7.33;4.23;;;;;;;18.56;79.19;100740.64;3596565;81;98733;-84
2022/07/23 22:54:34;;;;;;;7.70;4.57;;;;;;;18.56;79.28;100740.64;3596181;80;98662;-84
2022/07/23 22:59:36;;;;;;;7.85;4.45;;;;;;;18.51;79.29;100748.89;3634007;80;98822;-84
2022/07/23 23:04:37;;;;;;;9.43;4.70;;;;;;;18.46;79.17;100739.61;3627544;80;98748;-84
2022/07/23 23:09:38;;;;;;;8.40;4.33;;;;;;;18.40;79.26;100740.50;3600671;80;98871;-84
2022/07/23 23:14:39;;;;;;;10.37;5.10;;;;;;;18.36;79.46;100741.95;3600774;80;98999;-84
2022/07/23 23:19:40;;;;;;;10.60;5.40;;;;;;;18.29;79.51;100742.04;3593315;80;98763;-84